Boulder City, Nevada Weather observations

Data are for observation ending at time listed.
 Day   Time    Ave.   Ave.  Ave.  Vector   Max.   Stn.    Total    Solar   Ave.  
  of    of     Air    Rel.  Wind   Wind    Wind   Baro.  Precip.   Rad.    Soil  
Year   Day     Temp.  Hum.  Speed  Dir.    Gust   Pres.                    Temp. 
2026   (PST)    F      %     mph   deg.    mph     mb.     in.     W/m2     F   
------------------------------------------------------------------------------
 128    8:10   86.5    11    2.8    60      5.7   930.9    0.00     645    80.8
 128    8:20   87.0    11    2.8    59      5.3   931.0    0.00     673    80.9
 128    8:30   87.6    11    2.6    50      6.0   931.1    0.00     698    81.0
 128    8:40   88.2    11    2.7    15      5.3   931.1    0.00     723    81.1
 128    8:50   88.2    11    2.4    32      5.0   931.2    0.00     748    81.1
 128    9:00   88.5    11    2.7    22      5.8   931.2    0.00     771    81.3
 128    9:10   88.5    11    2.3    25      4.7   931.2    0.00     793    81.4
 128    9:20   90.3    10    1.1    75      3.5   931.2    0.00     789    81.6
 128    9:30   91.0    10    2.8    24      6.6   931.3    0.00     465    81.8
 128    9:40   90.3    10    3.1    15      6.6   931.3    0.00     610    82.0
 128    9:50   90.4    10    2.8    39      7.5   931.2    0.00     770    82.3
 128   10:00   90.7    10    3.3    14      8.8   931.1    0.00     835    82.5
 128   10:10   91.7     9    3.5    25      6.9   931.1    0.00     890    82.7
 128   10:20   92.0     9    3.4    25      7.6   931.1    0.00     896    83.0
 128   10:30   92.1     9    2.6    17      7.1   931.0    0.00     907    83.3
 128   10:40   92.6     9    3.6    39      9.0   930.9    0.00     890    83.6
 128   10:50   93.1     9    3.3    34      7.8   930.8    0.00     896    83.9
 128   11:00   93.2     9    3.1    47      6.9   930.7    0.00     704    84.2
 128   11:10   93.7     9    4.7    68     11.1   930.6    0.00     799    84.5
 128   11:20   94.4     8    4.6    44     11.3   930.5    0.00     886    84.9
 128   11:30   94.1     8    4.0    41      8.5   930.4    0.00     952    85.3
 128   11:40   94.3     8    3.0    88      7.5   930.3    0.00     908    85.6
 128   11:50   95.6     8    6.0    71     12.9   930.2    0.00     950    86.0
 128   12:00   95.4     8    4.8    67     13.2   930.0    0.00     947    86.3
 128   12:10   95.0     8    3.6    12      9.0   930.0    0.00     943    86.7
 128   12:20   95.1     8    5.1    72     12.2   929.8    0.00     937    87.0
 128   12:30   96.2     7    3.6   291     11.2   929.7    0.00     930    87.4
 128   12:40   97.0     7    7.0   292     21.4   929.5    0.00     918    87.8
 128   12:50   95.9     8    5.8    18     11.4   929.4    0.00     906    88.1
 128   13:00   96.7     7    6.2    83     12.1   929.2    0.00     891    88.5
 128   13:10   96.8     7    4.6   126     11.1   929.1    0.00     874    88.8
 128   13:20   97.2     7    4.1    60      8.4   929.0    0.00     853    89.2
 128   13:30   97.1     7    2.8    36      6.4   928.9    0.00     832    89.5
 128   13:40   98.1     7    2.7   155      6.9   928.8    0.00     812    89.9
 128   13:50   97.7     7    2.3    54      8.2   928.9    0.00     791    90.2
 128   14:00   98.7     7    3.1    60      8.1   928.9    0.00     771    90.6
 128   14:10   98.7     7    2.8   218      8.6   928.8    0.00     748    90.9
 128   14:20   99.3     7    6.1   158     12.4   928.6    0.00     726    91.2
 128   14:30   99.2     7    4.4   239     11.4   928.5    0.00     700    91.4
 128   14:40   99.8     6    5.4   127      9.8   928.3    0.00     674    91.6
 128   14:50   99.8     6    3.5   181     10.6   928.2    0.00     649    91.9
 128   15:00   99.8     6    7.7   197     14.8   928.2    0.00     622    92.2
 128   15:10   99.6     6    8.0   179     17.2   928.0    0.00     591    92.4
 128   15:20   99.5     6    9.5   180     17.2   927.8    0.00     561    92.6
 128   15:30   99.2     6   10.1   183     19.6   927.7    0.00     528    92.8
 128   15:40   99.0     6    9.3   195     18.6   927.6    0.00     498    93.0
 128   15:50   98.8     6   10.8   199     20.1   927.5    0.00     468    93.1
 128   16:00   98.4     6   10.9   186     17.6   927.4    0.00     434    93.4
 128   16:10   98.4     6    8.8   192     16.4   927.4    0.00     400    93.5
 128   16:20   98.4     6    8.7   190     17.0   927.3    0.00     365    93.6
 128   16:30   98.3     6    3.7   259      9.1   927.3    0.00     330    93.7
 128   16:40   98.4     6    5.7   228     12.1   927.2    0.00     297    93.7
 128   16:50   98.0     6    4.7   220     13.2   927.1    0.00     264    93.8
 128   17:00   97.7     6    4.5   228      9.9   927.0    0.00     233    93.8
 128   17:10   96.9     7    3.2   252      8.8   926.8    0.00     201    93.9
 128   17:20   96.5     7    3.8   247     10.3   926.7    0.00     170    93.9
 128   17:30   95.8     7    3.8   232     10.4   926.6    0.00     142    93.9
 128   17:40   95.4     7    6.9   219     11.3   926.5    0.00     115    93.9
 128   17:50   95.2     7    4.9   224     11.0   926.5    0.00      73    93.9
 128   18:00   94.7     7    2.9   236      6.9   926.4    0.00      24    93.9
 128   18:10   94.3     7    4.7   235     11.2   926.3    0.00      18    93.8
 128   18:20   94.0     8    4.2   238      7.9   926.3    0.00      14    93.8
 128   18:30   93.4     7    4.5   247      8.9   926.4    0.00       8    93.7
 128   18:40   93.1     7    4.5   251     11.3   926.4    0.00       3    93.8
 128   18:50   92.9     7    5.5   250     10.6   926.6    0.00       1    93.7
 128   19:00   92.5     8    4.7   253     10.8   926.7    0.00       0    93.6
 128   19:10   92.3     8    5.3   252     10.7   926.7    0.00       0    93.6
 128   19:20   92.0     8    4.4   255      7.8   926.8    0.00       0    93.4
 128   19:30   91.8     8    4.5   255      9.8   926.9    0.00       0    93.3
 128   19:40   91.5     8    4.9   253     10.4   927.0    0.00       0    93.2
 128   19:50   91.2     8    3.9   256      8.3   927.0    0.00       0    93.1
 128   20:00   90.8     8    3.5   259      8.8   927.0    0.00       0    93.0
 128   20:10   90.6     8    3.1   262      7.7   927.1    0.00       0    92.9
 128   20:20   90.3     8    2.7   264      6.2   927.1    0.00       0    92.8
 128   20:30   90.3     8    3.3   264      8.8   927.1    0.00       0    92.6
 128   20:40   90.5     8    4.3   257      9.4   927.2    0.00       0    92.5
 128   20:50   90.3     8    4.8   252      9.4   927.2    0.00       0    92.4
 128   21:00   90.2     8    5.4   245      9.6   927.2    0.00       0    92.2
 128   21:10   89.2     8    4.6   219      6.9   927.3    0.00       0    92.1
 128   21:20   87.5     8    4.9   207      7.7   927.3    0.00       0    91.9
 128   21:30   87.4     8    4.2   231      6.0   927.2    0.00       0    91.7
 128   21:40   86.6     9    4.1   213      7.0   927.2    0.00       0    91.6
 128   21:50   85.0     9    3.6   200      5.6   927.1    0.00       0    91.5
 128   22:00   84.4     9    4.2   201      6.3   927.1    0.00       0    91.4
 128   22:10   84.8     9    5.1   218      7.6   927.0    0.00       0    91.2
 128   22:20   85.1     9    5.1   223      8.0   927.0    0.00       0    91.1
 128   22:30   85.1     9    5.5   226      8.2   927.1    0.00       0    91.0
 128   22:40   84.6     9    5.0   221      7.1   927.1    0.00       0    90.8
 128   22:50   84.4     9    5.5   224      8.0   927.1    0.00       0    90.7
 128   23:00   84.3     9    5.2   228      7.8   927.1    0.00       0    90.5
 128   23:10   84.2     9    4.7   229      6.6   927.1    0.00       0    90.4
 128   23:20   83.4     9    4.6   218      6.4   927.1    0.00       0    90.3
 128   23:30   83.5     9    4.9   231      6.7   927.1    0.00       0    90.1
 128   23:40   84.3     9    5.6   236      8.9   927.1    0.00       0    90.0
 128   23:50   84.4     9    6.0   224     10.2   927.2    0.00       0    89.9
 129    0:00   84.0    10    6.7   224      9.6   927.2    0.00       0    89.7
 129    0:10   83.8    10    6.5   225      8.9   927.2    0.00       0    89.5
 129    0:20   83.6    11    5.1   233      7.7   927.2    0.00       0    89.4
 129    0:30   83.5    11    4.5   234      6.6   927.1    0.00       0    89.2
 129    0:40   83.2    11    4.5   225      7.5   927.1    0.00       0    89.1
 129    0:50   82.2    12    3.2   220      4.5   927.1    0.00       0    89.0
 129    1:00   80.9    12    4.3   171      6.9   927.1    0.00       0    88.8
 129    1:10   79.4    14    3.5   191      5.3   927.1    0.00       0    88.6
 129    1:20   78.6    14    4.9   163      8.0   927.1    0.00       0    88.5
 129    1:30   80.1    13    4.5   142      7.5   927.1    0.00       0    88.4
 129    1:40   79.5    13    3.3   228      5.1   927.1    0.00       0    88.2
 129    1:50   79.0    14    3.3   224      4.8   927.1    0.00       0    88.1
 129    2:00   78.0    14    3.4   225      5.6   927.1    0.00       0    88.0
 129    2:10   77.6    15    2.1   246      4.9   927.0    0.00       0    87.9
 129    2:20   77.9    15    3.6   240      4.7   927.0    0.00       0    87.7
 129    2:30   77.3    15    3.5   228      4.6   926.9    0.00       0    87.6
 129    2:40   74.9    16    3.8   201      5.6   926.9    0.00       0    87.5
 129    2:50   75.5    16    4.4   221      6.7   926.9    0.00       0    87.3
 129    3:00   75.1    17    4.1   197      5.6   926.9    0.00       0    87.2
 129    3:10   74.9    17    3.3   209      4.3   926.9    0.00       0    87.1
 129    3:20   75.3    17    3.3   208      4.7   926.9    0.00       0    86.9
 129    3:30   74.4    17    3.6   210      5.5   926.9    0.00       0    86.8
 129    3:40   74.4    18    3.4   215      4.8   926.9    0.00       0    86.6
 129    3:50   73.7    18    3.4   210      4.9   926.9    0.00       0    86.5
 129    4:00   73.6    18    3.5   215      5.0   926.9    0.00       0    86.4
 129    4:10   73.2    18    3.2   206      5.0   926.9    0.00       0    86.2
 129    4:20   72.9    18    2.0   231      4.4   926.9    0.00       0    86.1
 129    4:30   73.1    18    2.8   205      4.2   927.0    0.00       1    85.9
 129    4:40   72.8    18    2.0   227      3.7   927.1    0.00       3    85.8
 129    4:50   73.1    17    0.5   222      1.8   927.2    0.00       8    85.7
 129    5:00   73.6    17    1.5   197      2.3   927.4    0.00      18    85.6
 129    5:10   74.4    16    0.4   253      1.8   927.4    0.00      21    85.4
 129    5:20   74.8    17    0.6   217      1.8   927.6    0.00      27    85.3
 129    5:30   76.0    16    0.0     0      0.0   927.7    0.00      31    85.1
 129    5:40   78.5    15    0.1   250      1.1   927.8    0.00      72    85.0
 129    5:50   81.3    14    0.1    61      0.9   928.1    0.00     187    84.9
 129    6:00   83.5    14    0.8    22      2.3   928.3    0.00     221    84.7
 129    6:10   83.8    13    0.9   351      1.7   928.6    0.00     256    84.6
 129    6:20   85.0    13    0.3   339      1.4   928.8    0.00     290    84.4
 129    6:30   86.7    12    0.5    95      1.7   929.0    0.00     325    84.3
 129    6:40   86.1    12    2.0    81      3.9   929.2    0.00     360    84.1
 129    6:50   86.6    12    2.8    86      5.0   929.4    0.00     396    84.0
 129    7:00   86.4    12    2.8   337      8.9   929.6    0.00     429    83.9
 129    7:10   85.4    11    3.3   339      7.1   929.7    0.00     462    83.9
 129    7:20   85.8    10    4.5   328     10.7   929.7    0.00     496    83.8
 129    7:30   86.4    10    4.1   350      9.1   929.9    0.00     527    83.8
 129    7:40   87.1    11    3.3    11      6.9   929.9    0.00     558    83.8
 129    7:50   86.9    13    3.3    10      6.6   930.0    0.00     588    83.7
 129    8:00   86.3    13    3.6    11      6.9   930.1    0.00     617    83.7

Return to Boulder City, Nevada graphs page.


Western Regional Climate Center,wrcc@dri.edu